sensor_id;sensor_type;location;lat;lon;timestamp;pressure;altitude;pressure_sealevel;temperature;humidity
46886;BME280;32622;48.202;11.326;2022-10-16T00:00:24;1017.85;;;15.74;28.01
46886;BME280;32622;48.202;11.326;2022-10-16T00:02:27;1017.87;;;15.68;28.01
46886;BME280;32622;48.202;11.326;2022-10-16T00:04:30;1017.90;;;15.49;28.15
46886;BME280;32622;48.202;11.326;2022-10-16T00:06:34;1017.85;;;15.65;28.02
46886;BME280;32622;48.202;11.326;2022-10-16T00:08:38;1017.86;;;15.48;28.18
46886;BME280;32622;48.202;11.326;2022-10-16T00:10:42;1017.85;;;15.63;27.93
46886;BME280;32622;48.202;11.326;2022-10-16T00:12:45;1017.87;;;15.67;27.79
46886;BME280;32622;48.202;11.326;2022-10-16T00:14:49;1017.91;;;15.50;28.16
46886;BME280;32622;48.202;11.326;2022-10-16T00:16:52;1017.93;;;15.36;28.09
46886;BME280;32622;48.202;11.326;2022-10-16T00:18:56;1017.80;;;15.84;28.05
46886;BME280;32622;48.202;11.326;2022-10-16T00:21:03;1017.83;;;15.42;28.06
46886;BME280;32622;48.202;11.326;2022-10-16T00:23:06;1017.83;;;15.57;28.28
46886;BME280;32622;48.202;11.326;2022-10-16T00:25:10;1017.84;;;15.68;28.23
46886;BME280;32622;48.202;11.326;2022-10-16T00:27:13;1017.88;;;15.51;28.39
46886;BME280;32622;48.202;11.326;2022-10-16T00:29:16;1017.91;;;15.45;28.47
46886;BME280;32622;48.202;11.326;2022-10-16T00:31:21;1017.91;;;15.47;28.41
46886;BME280;32622;48.202;11.326;2022-10-16T00:33:25;1017.96;;;15.38;28.42
46886;BME280;32622;48.202;11.326;2022-10-16T00:35:28;1017.96;;;15.60;28.44
46886;BME280;32622;48.202;11.326;2022-10-16T00:37:31;1018.04;;;15.41;28.35
46886;BME280;32622;48.202;11.326;2022-10-16T00:39:34;1018.11;;;15.35;28.28
46886;BME280;32622;48.202;11.326;2022-10-16T00:41:38;1018.12;;;15.24;28.37
46886;BME280;32622;48.202;11.326;2022-10-16T00:43:43;1018.13;;;15.12;28.46
46886;BME280;32622;48.202;11.326;2022-10-16T00:45:47;1018.09;;;15.31;28.06
46886;BME280;32622;48.202;11.326;2022-10-16T00:47:52;1018.01;;;15.76;27.99
46886;BME280;32622;48.202;11.326;2022-10-16T00:49:59;1018.09;;;15.26;28.26
46886;BME280;32622;48.202;11.326;2022-10-16T00:52:05;1018.12;;;15.14;28.60
46886;BME280;32622;48.202;11.326;2022-10-16T00:54:11;1018.15;;;15.06;28.83
46886;BME280;32622;48.202;11.326;2022-10-16T00:56:16;1018.03;;;15.56;28.63
46886;BME280;32622;48.202;11.326;2022-10-16T00:58:20;1018.24;;;14.62;28.79
46886;BME280;32622;48.202;11.326;2022-10-16T01:00:26;1018.20;;;14.92;28.54
46886;BME280;32622;48.202;11.326;2022-10-16T01:02:29;1018.04;;;15.77;28.30
46886;BME280;32622;48.202;11.326;2022-10-16T01:04:35;1018.25;;;15.00;28.39
46886;BME280;32622;48.202;11.326;2022-10-16T01:06:46;1018.17;;;15.50;28.47
46886;BME280;32622;48.202;11.326;2022-10-16T01:09:02;1018.24;;;14.88;28.70
46886;BME280;32622;48.202;11.326;2022-10-16T01:11:12;1018.21;;;14.96;28.80
46886;BME280;32622;48.202;11.326;2022-10-16T01:13:24;1018.30;;;14.37;28.92
46886;BME280;32622;48.202;11.326;2022-10-16T01:15:33;1018.22;;;14.95;28.91
46886;BME280;32622;48.202;11.326;2022-10-16T01:17:43;1018.25;;;14.88;28.79
46886;BME280;32622;48.202;11.326;2022-10-16T01:20:01;1018.25;;;15.13;28.86
46886;BME280;32622;48.202;11.326;2022-10-16T01:22:07;1018.30;;;14.97;28.80
46886;BME280;32622;48.202;11.326;2022-10-16T01:24:17;1018.26;;;14.98;28.68
46886;BME280;32622;48.202;11.326;2022-10-16T01:26:39;1018.28;;;14.69;28.81
46886;BME280;32622;48.202;11.326;2022-10-16T01:28:51;1018.29;;;14.60;29.18
46886;BME280;32622;48.202;11.326;2022-10-16T01:30:59;1018.36;;;14.19;28.91
46886;BME280;32622;48.202;11.326;2022-10-16T01:33:08;1018.19;;;15.09;28.72
46886;BME280;32622;48.202;11.326;2022-10-16T01:35:17;1018.23;;;14.91;28.68
46886;BME280;32622;48.202;11.326;2022-10-16T01:37:32;1018.20;;;15.01;28.80
46886;BME280;32622;48.202;11.326;2022-10-16T01:39:39;1018.25;;;15.02;28.76
46886;BME280;32622;48.202;11.326;2022-10-16T01:41:48;1018.31;;;14.76;28.65
46886;BME280;32622;48.202;11.326;2022-10-16T01:43:58;1018.24;;;15.09;28.66
46886;BME280;32622;48.202;11.326;2022-10-16T01:46:05;1018.24;;;14.96;28.82
46886;BME280;32622;48.202;11.326;2022-10-16T01:48:12;1018.25;;;14.95;28.79
46886;BME280;32622;48.202;11.326;2022-10-16T01:50:18;1018.27;;;14.72;28.66
46886;BME280;32622;48.202;11.326;2022-10-16T01:52:25;1018.19;;;14.84;28.80
46886;BME280;32622;48.202;11.326;2022-10-16T01:54:32;1018.15;;;14.77;28.89
46886;BME280;32622;48.202;11.326;2022-10-16T01:56:38;1018.11;;;14.91;28.78
46886;BME280;32622;48.202;11.326;2022-10-16T01:58:45;1018.20;;;14.65;28.66
46886;BME280;32622;48.202;11.326;2022-10-16T02:00:50;1018.10;;;15.21;28.44
46886;BME280;32622;48.202;11.326;2022-10-16T02:02:55;1018.14;;;14.76;28.69
46886;BME280;32622;48.202;11.326;2022-10-16T02:05:08;1018.20;;;14.40;28.81
46886;BME280;32622;48.202;11.326;2022-10-16T02:07:14;1018.14;;;14.82;28.43
46886;BME280;32622;48.202;11.326;2022-10-16T02:09:18;1018.09;;;14.90;28.56
46886;BME280;32622;48.202;11.326;2022-10-16T02:11:22;1018.09;;;14.70;28.76
46886;BME280;32622;48.202;11.326;2022-10-16T02:13:30;1018.05;;;15.01;28.56
46886;BME280;32622;48.202;11.326;2022-10-16T02:15:34;1018.00;;;15.17;28.44
46886;BME280;32622;48.202;11.326;2022-10-16T02:17:37;1018.06;;;15.05;28.44
46886;BME280;32622;48.202;11.326;2022-10-16T02:19:41;1018.10;;;14.95;28.53
46886;BME280;32622;48.202;11.326;2022-10-16T02:21:49;1018.39;;;14.10;29.04
46886;BME280;32622;48.202;11.326;2022-10-16T02:23:57;1018.30;;;14.58;28.75
46886;BME280;32622;48.202;11.326;2022-10-16T02:26:07;1018.22;;;14.93;28.67
46886;BME280;32622;48.202;11.326;2022-10-16T02:28:15;1018.28;;;14.83;28.80
46886;BME280;32622;48.202;11.326;2022-10-16T02:30:22;1018.42;;;14.52;28.87
46886;BME280;32622;48.202;11.326;2022-10-16T02:32:30;1018.36;;;14.74;29.11
46886;BME280;32622;48.202;11.326;2022-10-16T02:34:36;1018.31;;;14.72;29.21
46886;BME280;32622;48.202;11.326;2022-10-16T02:36:41;1018.35;;;14.48;28.89
46886;BME280;32622;48.202;11.326;2022-10-16T02:38:45;1018.17;;;15.14;28.60
46886;BME280;32622;48.202;11.326;2022-10-16T02:40:49;1018.29;;;14.63;28.73
46886;BME280;32622;48.202;11.326;2022-10-16T02:42:54;1018.44;;;14.18;28.75
46886;BME280;32622;48.202;11.326;2022-10-16T02:44:57;1018.41;;;14.51;28.77
46886;BME280;32622;48.202;11.326;2022-10-16T02:47:01;1018.40;;;14.49;28.71
46886;BME280;32622;48.202;11.326;2022-10-16T02:49:04;1018.23;;;15.13;28.54
46886;BME280;32622;48.202;11.326;2022-10-16T02:51:08;1018.35;;;14.75;28.42
46886;BME280;32622;48.202;11.326;2022-10-16T02:53:11;1018.43;;;14.40;28.57
46886;BME280;32622;48.202;11.326;2022-10-16T02:55:15;1018.52;;;14.07;28.56
46886;BME280;32622;48.202;11.326;2022-10-16T02:57:19;1018.54;;;14.12;28.71
46886;BME280;32622;48.202;11.326;2022-10-16T02:59:22;1018.44;;;14.45;28.59
46886;BME280;32622;48.202;11.326;2022-10-16T03:01:25;1018.36;;;14.76;28.58
46886;BME280;32622;48.202;11.326;2022-10-16T03:03:29;1018.41;;;14.48;28.52
46886;BME280;32622;48.202;11.326;2022-10-16T03:05:33;1018.39;;;14.38;28.61
46886;BME280;32622;48.202;11.326;2022-10-16T03:07:36;1018.42;;;14.11;28.83
46886;BME280;32622;48.202;11.326;2022-10-16T03:09:39;1018.42;;;14.15;28.80
46886;BME280;32622;48.202;11.326;2022-10-16T03:11:43;1018.44;;;14.45;28.58
46886;BME280;32622;48.202;11.326;2022-10-16T03:13:46;1018.55;;;14.11;28.67
46886;BME280;32622;48.202;11.326;2022-10-16T03:15:49;1018.52;;;14.25;28.87
46886;BME280;32622;48.202;11.326;2022-10-16T03:17:53;1018.41;;;14.50;28.80
46886;BME280;32622;48.202;11.326;2022-10-16T03:19:56;1018.40;;;14.52;28.81
46886;BME280;32622;48.202;11.326;2022-10-16T03:21:59;1018.33;;;14.44;28.90
46886;BME280;32622;48.202;11.326;2022-10-16T03:24:03;1018.33;;;14.68;28.91
46886;BME280;32622;48.202;11.326;2022-10-16T03:26:06;1018.48;;;14.36;29.22
46886;BME280;32622;48.202;11.326;2022-10-16T03:28:10;1018.49;;;14.37;29.52
46886;BME280;32622;48.202;11.326;2022-10-16T03:30:13;1018.37;;;14.84;29.39
46886;BME280;32622;48.202;11.326;2022-10-16T03:33:00;1018.44;;;14.62;29.29
46886;BME280;32622;48.202;11.326;2022-10-16T03:35:04;1018.49;;;14.51;29.81
46886;BME280;32622;48.202;11.326;2022-10-16T03:37:08;1018.51;;;14.38;29.61
46886;BME280;32622;48.202;11.326;2022-10-16T03:39:12;1018.39;;;15.00;29.42
46886;BME280;32622;48.202;11.326;2022-10-16T03:41:17;1018.50;;;14.62;29.34
46886;BME280;32622;48.202;11.326;2022-10-16T03:43:44;1018.51;;;14.67;29.37
46886;BME280;32622;48.202;11.326;2022-10-16T03:45:49;1018.54;;;14.63;29.48
46886;BME280;32622;48.202;11.326;2022-10-16T03:47:52;1018.47;;;14.63;29.49
46886;BME280;32622;48.202;11.326;2022-10-16T03:49:55;1018.50;;;14.60;29.66
46886;BME280;32622;48.202;11.326;2022-10-16T03:51:58;1018.40;;;14.91;29.46
46886;BME280;32622;48.202;11.326;2022-10-16T03:54:02;1018.43;;;14.84;29.48
46886;BME280;32622;48.202;11.326;2022-10-16T03:56:06;1018.31;;;15.23;29.16
46886;BME280;32622;48.202;11.326;2022-10-16T03:58:09;1018.42;;;14.79;29.24
46886;BME280;32622;48.202;11.326;2022-10-16T04:00:13;1018.34;;;15.05;29.27
46886;BME280;32622;48.202;11.326;2022-10-16T04:02:17;1018.41;;;14.74;29.78
46886;BME280;32622;48.202;11.326;2022-10-16T04:04:20;1018.43;;;14.82;29.85
46886;BME280;32622;48.202;11.326;2022-10-16T04:06:23;1018.36;;;15.20;29.52
46886;BME280;32622;48.202;11.326;2022-10-16T04:08:26;1018.53;;;14.55;29.80
46886;BME280;32622;48.202;11.326;2022-10-16T04:10:30;1018.40;;;14.99;29.93
46886;BME280;32622;48.202;11.326;2022-10-16T04:12:33;1018.32;;;15.27;29.63
46886;BME280;32622;48.202;11.326;2022-10-16T04:14:36;1018.46;;;14.35;30.32
46886;BME280;32622;48.202;11.326;2022-10-16T04:16:39;1019.38;;;10.31;37.08
46886;BME280;32622;48.202;11.326;2022-10-16T04:18:42;1019.33;;;10.53;37.18
46886;BME280;32622;48.202;11.326;2022-10-16T04:20:45;1018.99;;;11.90;34.71
46886;BME280;32622;48.202;11.326;2022-10-16T04:22:49;1018.79;;;13.32;33.01
46886;BME280;32622;48.202;11.326;2022-10-16T04:24:52;1018.69;;;13.93;32.01
46886;BME280;32622;48.202;11.326;2022-10-16T04:26:54;1018.80;;;13.79;31.76
46886;BME280;32622;48.202;11.326;2022-10-16T04:28:58;1018.82;;;13.94;31.30
46886;BME280;32622;48.202;11.326;2022-10-16T04:31:04;1018.71;;;14.66;31.00
46886;BME280;32622;48.202;11.326;2022-10-16T04:33:09;1018.94;;;13.69;31.44
46886;BME280;32622;48.202;11.326;2022-10-16T04:35:12;1018.64;;;14.84;30.88
46886;BME280;32622;48.202;11.326;2022-10-16T04:37:15;1018.63;;;14.71;30.68
46886;BME280;32622;48.202;11.326;2022-10-16T04:39:18;1018.55;;;15.10;30.49
46886;BME280;32622;48.202;11.326;2022-10-16T04:41:21;1018.72;;;14.46;30.78
46886;BME280;32622;48.202;11.326;2022-10-16T04:43:25;1018.43;;;15.25;30.19
46886;BME280;32622;48.202;11.326;2022-10-16T04:45:28;1018.55;;;14.59;30.23
46886;BME280;32622;48.202;11.326;2022-10-16T04:47:31;1018.44;;;14.81;30.08
46886;BME280;32622;48.202;11.326;2022-10-16T04:49:34;1018.36;;;14.87;30.06
46886;BME280;32622;48.202;11.326;2022-10-16T04:51:37;1018.32;;;14.84;29.83
46886;BME280;32622;48.202;11.326;2022-10-16T04:53:40;1018.44;;;14.56;31.09
46886;BME280;32622;48.202;11.326;2022-10-16T04:55:44;1018.62;;;14.01;30.67
46886;BME280;32622;48.202;11.326;2022-10-16T04:57:47;1018.59;;;14.33;30.56
46886;BME280;32622;48.202;11.326;2022-10-16T04:59:51;1018.82;;;13.69;31.51
46886;BME280;32622;48.202;11.326;2022-10-16T05:01:54;1018.66;;;14.29;30.61
46886;BME280;32622;48.202;11.326;2022-10-16T05:03:57;1018.62;;;14.45;30.14
46886;BME280;32622;48.202;11.326;2022-10-16T05:06:00;1018.59;;;14.70;29.86
46886;BME280;32622;48.202;11.326;2022-10-16T05:08:03;1018.58;;;14.88;29.71
46886;BME280;32622;48.202;11.326;2022-10-16T05:10:07;1018.56;;;14.96;29.70
46886;BME280;32622;48.202;11.326;2022-10-16T05:12:10;1018.59;;;14.65;29.60
46886;BME280;32622;48.202;11.326;2022-10-16T05:14:13;1018.52;;;15.08;29.21
46886;BME280;32622;48.202;11.326;2022-10-16T05:16:16;1018.76;;;14.64;29.92
46886;BME280;32622;48.202;11.326;2022-10-16T05:18:19;1018.79;;;14.74;29.98
46886;BME280;32622;48.202;11.326;2022-10-16T05:20:22;1018.79;;;14.44;29.47
46886;BME280;32622;48.202;11.326;2022-10-16T05:22:25;1018.72;;;14.38;29.43
46886;BME280;32622;48.202;11.326;2022-10-16T05:24:28;1018.60;;;14.53;29.14
46886;BME280;32622;48.202;11.326;2022-10-16T05:26:31;1018.62;;;14.49;29.21
46886;BME280;32622;48.202;11.326;2022-10-16T05:28:34;1018.59;;;14.67;29.09
46886;BME280;32622;48.202;11.326;2022-10-16T05:30:38;1018.59;;;14.88;28.90
46886;BME280;32622;48.202;11.326;2022-10-16T05:32:41;1018.62;;;14.85;28.84
46886;BME280;32622;48.202;11.326;2022-10-16T05:34:45;1018.70;;;14.64;28.75
46886;BME280;32622;48.202;11.326;2022-10-16T05:36:48;1018.65;;;15.05;28.76
46886;BME280;32622;48.202;11.326;2022-10-16T05:38:51;1018.59;;;15.38;28.48
46886;BME280;32622;48.202;11.326;2022-10-16T05:40:55;1018.63;;;15.38;28.40
46886;BME280;32622;48.202;11.326;2022-10-16T05:42:58;1018.71;;;15.13;28.58
46886;BME280;32622;48.202;11.326;2022-10-16T05:45:01;1018.68;;;15.13;28.62
46886;BME280;32622;48.202;11.326;2022-10-16T05:47:04;1018.74;;;15.10;28.56
46886;BME280;32622;48.202;11.326;2022-10-16T05:49:07;1018.78;;;14.99;28.42
46886;BME280;32622;48.202;11.326;2022-10-16T05:51:12;1018.70;;;15.32;28.27
46886;BME280;32622;48.202;11.326;2022-10-16T05:53:15;1018.76;;;15.21;28.10
46886;BME280;32622;48.202;11.326;2022-10-16T05:55:18;1018.79;;;15.18;28.09
46886;BME280;32622;48.202;11.326;2022-10-16T05:57:21;1018.70;;;15.70;28.00
46886;BME280;32622;48.202;11.326;2022-10-16T05:59:24;1018.85;;;15.05;27.84
46886;BME280;32622;48.202;11.326;2022-10-16T06:01:27;1018.78;;;15.55;28.04
46886;BME280;32622;48.202;11.326;2022-10-16T06:03:30;1018.84;;;15.47;28.02
46886;BME280;32622;48.202;11.326;2022-10-16T06:05:33;1019.03;;;14.75;28.01
46886;BME280;32622;48.202;11.326;2022-10-16T06:07:36;1018.85;;;15.46;28.00
46886;BME280;32622;48.202;11.326;2022-10-16T06:09:39;1018.85;;;15.43;28.01
46886;BME280;32622;48.202;11.326;2022-10-16T06:11:42;1019.01;;;14.70;27.85
46886;BME280;32622;48.202;11.326;2022-10-16T06:13:49;1018.87;;;15.53;27.78
46886;BME280;32622;48.202;11.326;2022-10-16T06:15:52;1019.04;;;15.07;27.85
46886;BME280;32622;48.202;11.326;2022-10-16T06:17:55;1019.07;;;15.10;27.84
46886;BME280;32622;48.202;11.326;2022-10-16T06:19:58;1019.01;;;15.40;27.94
46886;BME280;32622;48.202;11.326;2022-10-16T06:22:01;1019.11;;;15.03;27.85
46886;BME280;32622;48.202;11.326;2022-10-16T06:24:05;1018.99;;;15.60;27.69
46886;BME280;32622;48.202;11.326;2022-10-16T06:26:09;1019.02;;;15.59;27.67
46886;BME280;32622;48.202;11.326;2022-10-16T06:28:14;1019.04;;;15.52;27.74
46886;BME280;32622;48.202;11.326;2022-10-16T06:30:17;1019.10;;;15.24;27.65
46886;BME280;32622;48.202;11.326;2022-10-16T06:32:20;1019.08;;;15.36;27.86
46886;BME280;32622;48.202;11.326;2022-10-16T06:34:24;1019.14;;;15.15;27.69
46886;BME280;32622;48.202;11.326;2022-10-16T06:36:27;1019.17;;;15.20;27.68
46886;BME280;32622;48.202;11.326;2022-10-16T06:38:31;1019.18;;;15.26;27.63
46886;BME280;32622;48.202;11.326;2022-10-16T06:40:34;1019.27;;;14.97;27.58
46886;BME280;32622;48.202;11.326;2022-10-16T06:42:47;1019.15;;;15.62;27.54
46886;BME280;32622;48.202;11.326;2022-10-16T06:44:57;1019.20;;;15.49;27.67
46886;BME280;32622;48.202;11.326;2022-10-16T06:47:08;1019.30;;;15.41;27.69
46886;BME280;32622;48.202;11.326;2022-10-16T06:51:44;1019.36;;;15.22;27.84
46886;BME280;32622;48.202;11.326;2022-10-16T06:53:50;1019.49;;;14.60;27.96
46886;BME280;32622;48.202;11.326;2022-10-16T08:43:35;1019.15;;;21.17;27.36
46886;BME280;32622;48.202;11.326;2022-10-16T08:45:55;1019.83;;;18.07;27.19
46886;BME280;32622;48.202;11.326;2022-10-16T08:48:14;1019.71;;;18.83;26.27
46886;BME280;32622;48.202;11.326;2022-10-16T08:50:23;1019.88;;;18.21;25.52
46886;BME280;32622;48.202;11.326;2022-10-16T08:52:30;1019.72;;;19.07;25.16
46886;BME280;32622;48.202;11.326;2022-10-16T08:54:37;1019.73;;;19.04;24.93
46886;BME280;32622;48.202;11.326;2022-10-16T08:56:43;1019.49;;;19.94;24.36
46886;BME280;32622;48.202;11.326;2022-10-16T08:58:47;1019.52;;;19.56;23.84
46886;BME280;32622;48.202;11.326;2022-10-16T09:00:54;1019.40;;;19.94;23.63
46886;BME280;32622;48.202;11.326;2022-10-16T09:03:04;1019.22;;;20.91;23.70
46886;BME280;32622;48.202;11.326;2022-10-16T09:05:21;1019.26;;;20.67;24.16
46886;BME280;32622;48.202;11.326;2022-10-16T09:07:31;1019.36;;;20.18;24.64
46886;BME280;32622;48.202;11.326;2022-10-16T09:09:50;1019.33;;;20.36;24.35
46886;BME280;32622;48.202;11.326;2022-10-16T09:12:00;1019.30;;;20.63;24.44
46886;BME280;32622;48.202;11.326;2022-10-16T09:14:13;1019.43;;;19.93;24.14
46886;BME280;32622;48.202;11.326;2022-10-16T09:16:22;1019.20;;;21.19;24.58
46886;BME280;32622;48.202;11.326;2022-10-16T09:18:32;1019.16;;;21.36;24.96
46886;BME280;32622;48.202;11.326;2022-10-16T09:20:45;1019.24;;;21.07;24.46
46886;BME280;32622;48.202;11.326;2022-10-16T09:22:53;1019.61;;;19.28;24.36
46886;BME280;32622;48.202;11.326;2022-10-16T09:25:01;1019.53;;;19.84;24.56
46886;BME280;32622;48.202;11.326;2022-10-16T09:27:14;1019.51;;;20.17;24.71
46886;BME280;32622;48.202;11.326;2022-10-16T09:29:19;1019.51;;;20.54;24.58
46886;BME280;32622;48.202;11.326;2022-10-16T09:31:23;1019.50;;;20.53;23.77
46886;BME280;32622;48.202;11.326;2022-10-16T09:33:30;1019.67;;;19.73;24.87
46886;BME280;32622;48.202;11.326;2022-10-16T09:35:38;1019.57;;;20.05;24.15
46886;BME280;32622;48.202;11.326;2022-10-16T09:37:43;1019.66;;;19.87;24.53
46886;BME280;32622;48.202;11.326;2022-10-16T09:39:49;1019.53;;;20.41;25.09
46886;BME280;32622;48.202;11.326;2022-10-16T09:41:53;1019.50;;;20.81;23.92
46886;BME280;32622;48.202;11.326;2022-10-16T09:43:59;1019.58;;;20.41;23.40
46886;BME280;32622;48.202;11.326;2022-10-16T09:46:05;1019.56;;;20.68;23.64
46886;BME280;32622;48.202;11.326;2022-10-16T09:48:11;1019.45;;;21.14;23.18
46886;BME280;32622;48.202;11.326;2022-10-16T09:50:23;1019.58;;;20.52;23.61
46886;BME280;32622;48.202;11.326;2022-10-16T09:52:27;1019.77;;;19.78;23.64
46886;BME280;32622;48.202;11.326;2022-10-16T09:54:31;1019.85;;;19.38;24.07
46886;BME280;32622;48.202;11.326;2022-10-16T09:56:35;1019.63;;;20.39;23.24
46886;BME280;32622;48.202;11.326;2022-10-16T09:58:41;1019.62;;;20.19;23.68
46886;BME280;32622;48.202;11.326;2022-10-16T10:00:51;1019.76;;;19.89;24.23
46886;BME280;32622;48.202;11.326;2022-10-16T10:02:55;1019.80;;;19.82;24.00
46886;BME280;32622;48.202;11.326;2022-10-16T10:04:58;1019.78;;;19.98;23.96
46886;BME280;32622;48.202;11.326;2022-10-16T10:07:01;1019.80;;;20.03;24.19
46886;BME280;32622;48.202;11.326;2022-10-16T10:09:15;1019.75;;;20.40;24.33
46886;BME280;32622;48.202;11.326;2022-10-16T10:11:36;1019.79;;;20.48;23.49
46886;BME280;32622;48.202;11.326;2022-10-16T10:13:39;1019.83;;;20.38;23.91
46886;BME280;32622;48.202;11.326;2022-10-16T10:15:42;1019.74;;;20.75;23.46
46886;BME280;32622;48.202;11.326;2022-10-16T10:17:47;1019.72;;;20.50;23.62
46886;BME280;32622;48.202;11.326;2022-10-16T10:19:52;1019.85;;;19.86;23.36
46886;BME280;32622;48.202;11.326;2022-10-16T10:21:56;1019.68;;;20.50;22.87
46886;BME280;32622;48.202;11.326;2022-10-16T10:23:59;1019.69;;;20.45;23.15
46886;BME280;32622;48.202;11.326;2022-10-16T10:26:06;1019.73;;;20.51;22.83
46886;BME280;32622;48.202;11.326;2022-10-16T10:28:42;1019.68;;;20.80;22.75
46886;BME280;32622;48.202;11.326;2022-10-16T10:30:57;1019.69;;;20.68;22.45
46886;BME280;32622;48.202;11.326;2022-10-16T10:33:14;1019.59;;;21.13;21.85
46886;BME280;32622;48.202;11.326;2022-10-16T10:35:24;1019.63;;;20.94;22.55
46886;BME280;32622;48.202;11.326;2022-10-16T10:37:42;1019.57;;;21.10;22.15
46886;BME280;32622;48.202;11.326;2022-10-16T10:39:56;1019.78;;;20.09;22.74
46886;BME280;32622;48.202;11.326;2022-10-16T10:42:12;1019.83;;;19.80;22.85
46886;BME280;32622;48.202;11.326;2022-10-16T10:44:27;1019.67;;;20.35;22.46
46886;BME280;32622;48.202;11.326;2022-10-16T10:46:41;1019.43;;;21.39;22.33
46886;BME280;32622;48.202;11.326;2022-10-16T10:48:55;1019.41;;;21.54;21.84
46886;BME280;32622;48.202;11.326;2022-10-16T10:51:04;1019.39;;;21.58;21.63
46886;BME280;32622;48.202;11.326;2022-10-16T10:53:17;1019.61;;;20.70;22.19
46886;BME280;32622;48.202;11.326;2022-10-16T10:55:31;1019.65;;;20.52;22.35
46886;BME280;32622;48.202;11.326;2022-10-16T10:57:44;1019.52;;;21.10;21.58
46886;BME280;32622;48.202;11.326;2022-10-16T11:00:02;1019.61;;;20.68;21.82
46886;BME280;32622;48.202;11.326;2022-10-16T11:02:14;1019.45;;;21.38;21.27
46886;BME280;32622;48.202;11.326;2022-10-16T11:04:31;1019.79;;;19.85;22.57
46886;BME280;32622;48.202;11.326;2022-10-16T11:06:39;1019.60;;;20.97;21.72
46886;BME280;32622;48.202;11.326;2022-10-16T11:08:46;1019.62;;;20.86;22.24
46886;BME280;32622;48.202;11.326;2022-10-16T11:10:54;1019.69;;;20.36;22.19
46886;BME280;32622;48.202;11.326;2022-10-16T11:13:09;1019.68;;;20.34;22.61
46886;BME280;32622;48.202;11.326;2022-10-16T11:15:21;1019.78;;;19.99;22.77
46886;BME280;32622;48.202;11.326;2022-10-16T11:17:29;1019.73;;;20.09;22.95
46886;BME280;32622;48.202;11.326;2022-10-16T11:19:39;1019.60;;;20.72;21.75
46886;BME280;32622;48.202;11.326;2022-10-16T11:21:48;1019.47;;;21.32;21.07
46886;BME280;32622;48.202;11.326;2022-10-16T11:23:59;1019.63;;;20.49;21.35
46886;BME280;32622;48.202;11.326;2022-10-16T11:26:05;1019.63;;;20.45;21.52
46886;BME280;32622;48.202;11.326;2022-10-16T11:28:15;1019.42;;;21.32;20.78
46886;BME280;32622;48.202;11.326;2022-10-16T11:30:22;1019.59;;;20.34;21.89
46886;BME280;32622;48.202;11.326;2022-10-16T11:32:30;1019.45;;;21.01;22.39
46886;BME280;32622;48.202;11.326;2022-10-16T11:34:40;1019.37;;;21.37;21.45
46886;BME280;32622;48.202;11.326;2022-10-16T11:36:50;1019.32;;;21.67;20.98
46886;BME280;32622;48.202;11.326;2022-10-16T11:39:00;1019.38;;;21.29;20.59
46886;BME280;32622;48.202;11.326;2022-10-16T11:41:12;1019.17;;;22.25;19.53
46886;BME280;32622;48.202;11.326;2022-10-16T11:43:23;1019.41;;;21.27;20.06
46886;BME280;32622;48.202;11.326;2022-10-16T11:45:33;1019.31;;;21.92;20.22
46886;BME280;32622;48.202;11.326;2022-10-16T11:47:41;1019.47;;;21.24;20.72
46886;BME280;32622;48.202;11.326;2022-10-16T11:49:49;1019.43;;;21.52;20.26
46886;BME280;32622;48.202;11.326;2022-10-16T11:52:00;1019.46;;;21.32;20.19
46886;BME280;32622;48.202;11.326;2022-10-16T11:54:20;1019.30;;;22.09;19.42
46886;BME280;32622;48.202;11.326;2022-10-16T11:56:25;1019.45;;;21.34;19.90
46886;BME280;32622;48.202;11.326;2022-10-16T11:58:31;1019.48;;;21.03;20.00
46886;BME280;32622;48.202;11.326;2022-10-16T12:00:39;1019.35;;;21.75;19.46
46886;BME280;32622;48.202;11.326;2022-10-16T12:02:52;1019.36;;;21.61;20.17
46886;BME280;32622;48.202;11.326;2022-10-16T12:05:09;1019.50;;;21.04;19.57
46886;BME280;32622;48.202;11.326;2022-10-16T12:07:17;1019.41;;;21.44;19.05
46886;BME280;32622;48.202;11.326;2022-10-16T12:09:25;1019.31;;;21.72;18.87
46886;BME280;32622;48.202;11.326;2022-10-16T12:11:35;1019.32;;;21.56;18.76
46886;BME280;32622;48.202;11.326;2022-10-16T12:13:40;1019.38;;;20.99;18.89
46886;BME280;32622;48.202;11.326;2022-10-16T12:15:43;1019.28;;;21.43;18.90
46886;BME280;32622;48.202;11.326;2022-10-16T12:17:47;1019.45;;;20.72;19.28
46886;BME280;32622;48.202;11.326;2022-10-16T12:19:58;1019.32;;;21.23;18.94
46886;BME280;32622;48.202;11.326;2022-10-16T12:22:02;1019.21;;;21.93;19.05
46886;BME280;32622;48.202;11.326;2022-10-16T12:24:06;1019.13;;;22.29;18.82
46886;BME280;32622;48.202;11.326;2022-10-16T12:26:26;1019.26;;;21.63;19.73
46886;BME280;32622;48.202;11.326;2022-10-16T12:28:31;1018.97;;;22.77;18.62
46886;BME280;32622;48.202;11.326;2022-10-16T12:30:36;1019.20;;;21.66;19.86
46886;BME280;32622;48.202;11.326;2022-10-16T12:32:40;1019.34;;;21.01;19.42
46886;BME280;32622;48.202;11.326;2022-10-16T12:34:43;1019.22;;;21.49;18.69
46886;BME280;32622;48.202;11.326;2022-10-16T12:36:47;1019.09;;;21.95;18.56
46886;BME280;32622;48.202;11.326;2022-10-16T12:38:52;1019.02;;;22.31;18.76
46886;BME280;32622;48.202;11.326;2022-10-16T12:40:59;1019.03;;;22.21;18.70
46886;BME280;32622;48.202;11.326;2022-10-16T12:43:13;1019.09;;;21.94;18.55
46886;BME280;32622;48.202;11.326;2022-10-16T12:45:29;1019.07;;;22.09;18.57
46886;BME280;32622;48.202;11.326;2022-10-16T12:47:46;1019.04;;;22.14;18.74
46886;BME280;32622;48.202;11.326;2022-10-16T12:49:51;1019.12;;;21.78;19.05
46886;BME280;32622;48.202;11.326;2022-10-16T12:51:55;1019.34;;;20.73;19.74
46886;BME280;32622;48.202;11.326;2022-10-16T12:53:59;1019.20;;;21.38;19.13
46886;BME280;32622;48.202;11.326;2022-10-16T12:56:08;1018.94;;;22.40;18.51
46886;BME280;32622;48.202;11.326;2022-10-16T12:58:22;1018.77;;;23.00;17.94
46886;BME280;32622;48.202;11.326;2022-10-16T13:00:34;1018.75;;;23.07;17.66